createdAt,value
2018-12-11T00:00:14.855Z,6.53
2018-12-11T00:02:43.121Z,5.90
2018-12-11T00:05:11.483Z,6.97
2018-12-11T00:07:39.751Z,7.42
2018-12-11T00:10:08.020Z,7.55
2018-12-11T00:12:36.238Z,6.08
2018-12-11T00:15:05.231Z,6.15
2018-12-11T00:17:33.409Z,8.85
2018-12-11T00:20:01.681Z,6.10
2018-12-11T00:22:29.849Z,12.35
2018-12-11T00:24:58.095Z,7.83
2018-12-11T00:27:26.359Z,8.80
2018-12-11T00:29:54.563Z,13.35
2018-12-11T00:32:22.768Z,9.95
2018-12-11T00:34:50.983Z,10.40
2018-12-11T00:37:19.289Z,10.85
2018-12-11T00:39:47.550Z,7.25
2018-12-11T00:42:15.825Z,14.25
2018-12-11T00:44:44.022Z,10.32
2018-12-11T00:47:12.232Z,11.65
2018-12-11T00:49:40.513Z,12.30
2018-12-11T00:52:08.737Z,11.75
2018-12-11T00:54:37.152Z,11.88
2018-12-11T00:57:05.446Z,12.63
2018-12-11T00:59:33.682Z,10.85
2018-12-11T01:02:01.920Z,12.28
2018-12-11T01:04:30.094Z,14.38
2018-12-11T01:06:58.331Z,9.13
2018-12-11T01:09:26.618Z,9.33
2018-12-11T01:11:54.874Z,7.08
2018-12-11T01:14:23.162Z,9.65
2018-12-11T01:16:51.386Z,7.80
2018-12-11T01:19:19.679Z,6.90
2018-12-11T01:21:47.855Z,6.83
2018-12-11T01:24:16.121Z,7.15
2018-12-11T01:26:44.383Z,6.55
2018-12-11T01:29:12.574Z,9.28
2018-12-11T01:31:40.757Z,12.68
2018-12-11T01:34:08.940Z,6.40
2018-12-11T01:36:37.198Z,11.18
2018-12-11T01:39:08.542Z,6.67
2018-12-11T01:41:37.069Z,7.60
2018-12-11T01:44:05.333Z,4.83
2018-12-11T01:46:33.615Z,8.58
2018-12-11T01:49:01.817Z,5.92
2018-12-11T01:51:30.043Z,6.70
2018-12-11T01:53:58.303Z,6.60
2018-12-11T01:56:26.577Z,5.70
2018-12-11T01:58:54.803Z,9.15
2018-12-11T02:01:23.018Z,6.62
2018-12-11T02:03:51.443Z,7.25
2018-12-11T02:06:19.616Z,7.70
2018-12-11T02:08:47.745Z,9.43
2018-12-11T02:11:15.965Z,10.60
2018-12-11T02:13:44.196Z,5.58
2018-12-11T02:16:12.398Z,9.20
2018-12-11T02:18:40.591Z,14.63
2018-12-11T02:21:08.802Z,6.00
2018-12-11T02:23:36.910Z,9.35
2018-12-11T02:26:05.222Z,8.13
2018-12-11T02:28:33.473Z,14.58
2018-12-11T02:31:01.695Z,13.15
2018-12-11T02:33:29.949Z,12.40
2018-12-11T02:35:58.154Z,10.10
2018-12-11T02:38:26.411Z,9.85
2018-12-11T02:40:54.581Z,16.42
2018-12-11T02:43:22.816Z,13.10
2018-12-11T02:45:51.022Z,12.33
2018-12-11T02:48:19.250Z,10.08
2018-12-11T02:50:47.439Z,8.95
2018-12-11T02:53:15.679Z,11.55
2018-12-11T02:55:43.890Z,14.98
2018-12-11T02:58:12.098Z,14.60
2018-12-11T03:00:40.271Z,15.28
2018-12-11T03:03:08.551Z,20.00
2018-12-11T03:05:36.802Z,8.10
2018-12-11T03:08:05.048Z,9.63
2018-12-11T03:10:33.441Z,15.65
2018-12-11T03:13:01.687Z,12.15
2018-12-11T03:15:29.867Z,11.60
2018-12-11T03:17:58.103Z,11.28
2018-12-11T03:20:26.274Z,12.85
2018-12-11T03:22:54.560Z,14.30
2018-12-11T03:25:22.803Z,12.58
2018-12-11T03:27:50.961Z,17.85
2018-12-11T03:30:19.185Z,15.63
2018-12-11T03:32:47.428Z,10.35
2018-12-11T03:35:15.758Z,14.98
2018-12-11T03:37:44.007Z,9.55
2018-12-11T03:40:12.261Z,15.83
2018-12-11T03:42:40.467Z,11.08
2018-12-11T03:45:08.730Z,14.80
2018-12-11T03:47:36.889Z,16.30
2018-12-11T03:50:05.458Z,12.65
2018-12-11T03:52:33.799Z,11.78
2018-12-11T03:55:02.070Z,15.45
2018-12-11T03:57:30.328Z,15.32
2018-12-11T03:59:58.658Z,11.20
2018-12-11T04:02:26.973Z,11.55
2018-12-11T04:04:55.186Z,13.80
2018-12-11T04:07:23.436Z,17.75
2018-12-11T04:09:51.583Z,15.75
2018-12-11T04:12:20.141Z,11.03
2018-12-11T04:14:48.510Z,12.63
2018-12-11T04:17:16.950Z,12.47
2018-12-11T04:19:45.207Z,19.60
2018-12-11T04:22:13.503Z,15.98
2018-12-11T04:24:41.696Z,16.32
2018-12-11T04:27:09.914Z,13.05
2018-12-11T04:29:38.159Z,18.55
2018-12-11T04:32:06.423Z,16.23
2018-12-11T04:34:34.653Z,20.90
2018-12-11T04:37:02.888Z,16.50
2018-12-11T04:39:34.072Z,19.70
2018-12-11T04:42:01.273Z,15.25
2018-12-11T04:44:29.482Z,16.48
2018-12-11T04:46:57.630Z,18.20
2018-12-11T04:49:25.801Z,12.45
2018-12-11T04:51:54.037Z,17.07
2018-12-11T04:54:22.251Z,14.38
2018-12-11T04:56:50.467Z,14.80
2018-12-11T04:59:18.748Z,27.73
2018-12-11T05:01:46.904Z,20.23
2018-12-11T05:04:15.134Z,19.02
2018-12-11T05:06:43.466Z,14.07
2018-12-11T05:09:11.752Z,16.80
2018-12-11T05:11:39.903Z,15.70
2018-12-11T05:14:08.304Z,15.35
2018-12-11T05:16:36.547Z,14.75
2018-12-11T05:19:04.765Z,15.38
2018-12-11T05:21:33.090Z,13.13
2018-12-11T05:24:01.396Z,16.32
2018-12-11T05:26:29.622Z,12.43
2018-12-11T05:28:57.831Z,14.23
2018-12-11T05:31:26.086Z,16.87
2018-12-11T05:33:56.348Z,18.87
2018-12-11T05:36:24.607Z,17.98
2018-12-11T05:38:52.710Z,20.17
2018-12-11T05:41:20.990Z,18.40
2018-12-11T05:43:49.227Z,29.05
2018-12-11T05:46:17.381Z,14.25
2018-12-11T05:48:45.698Z,15.95
2018-12-11T05:51:13.915Z,18.90
2018-12-11T05:53:42.223Z,19.37
2018-12-11T05:56:10.445Z,14.75
2018-12-11T05:58:38.878Z,19.23
2018-12-11T06:01:07.150Z,15.58
2018-12-11T06:03:35.382Z,12.50
2018-12-11T06:06:03.691Z,24.70
2018-12-11T06:08:31.991Z,9.88
2018-12-11T06:11:00.180Z,11.95
2018-12-11T06:13:28.491Z,14.85
2018-12-11T06:15:56.746Z,10.03
2018-12-11T06:18:25.062Z,15.08
2018-12-11T06:20:53.237Z,13.68
2018-12-11T06:23:21.448Z,11.30
2018-12-11T06:25:49.739Z,17.57
2018-12-11T06:28:17.991Z,15.53
2018-12-11T06:30:46.365Z,11.93
2018-12-11T06:33:14.633Z,13.68
2018-12-11T06:35:43.050Z,12.85
2018-12-11T06:38:11.266Z,16.25
2018-12-11T06:40:39.490Z,10.13
2018-12-11T06:43:07.731Z,12.45
2018-12-11T06:45:36.020Z,13.72
2018-12-11T06:48:04.190Z,15.38
2018-12-11T06:50:32.362Z,12.55
2018-12-11T06:53:00.643Z,15.28
2018-12-11T06:55:28.897Z,10.50
2018-12-11T06:57:57.119Z,18.37
2018-12-11T07:00:25.344Z,16.20
2018-12-11T07:02:53.521Z,11.30
2018-12-11T07:05:21.812Z,15.18
2018-12-11T07:07:50.036Z,13.38
2018-12-11T07:10:18.153Z,16.93
2018-12-11T07:12:46.265Z,14.60
2018-12-11T07:15:14.495Z,25.10
2018-12-11T07:17:42.713Z,18.55
2018-12-11T07:20:10.943Z,20.27
2018-12-11T07:22:39.155Z,22.95
2018-12-11T07:25:07.454Z,18.20
2018-12-11T07:27:35.694Z,20.97
2018-12-11T07:30:04.369Z,20.17
2018-12-11T07:32:32.581Z,23.80
2018-12-11T07:35:00.708Z,14.93
2018-12-11T07:37:28.925Z,17.80
2018-12-11T07:39:57.168Z,22.25
2018-12-11T07:42:25.379Z,13.80
2018-12-11T07:44:53.597Z,16.00
2018-12-11T07:47:21.863Z,14.87
2018-12-11T07:49:50.104Z,21.35
2018-12-11T07:52:18.336Z,15.48
2018-12-11T07:54:46.536Z,16.48
2018-12-11T07:57:14.765Z,20.48
2018-12-11T07:59:43.087Z,18.00
2018-12-11T08:02:11.278Z,11.30
2018-12-11T08:04:39.474Z,14.55
2018-12-11T08:07:07.652Z,13.75
2018-12-11T08:09:35.888Z,11.30
2018-12-11T08:12:08.322Z,17.70
2018-12-11T08:14:34.339Z,15.95
2018-12-11T08:17:02.638Z,19.35
2018-12-11T08:19:30.901Z,20.60
2018-12-11T08:21:59.151Z,22.17
2018-12-11T08:24:27.411Z,15.35
2018-12-11T08:26:55.726Z,14.20
2018-12-11T08:29:24.082Z,18.20
2018-12-11T08:31:52.301Z,21.35
2018-12-11T08:34:20.547Z,17.62
2018-12-11T08:36:48.666Z,19.42
2018-12-11T08:39:16.932Z,11.83
2018-12-11T08:41:45.214Z,17.27
2018-12-11T08:44:13.477Z,16.42
2018-12-11T08:46:41.768Z,18.75
2018-12-11T08:49:09.997Z,13.85
2018-12-11T08:51:38.192Z,11.97
2018-12-11T08:54:06.524Z,18.85
2018-12-11T08:56:34.750Z,17.62
2018-12-11T08:59:06.473Z,19.82
2018-12-11T09:01:33.287Z,23.12
2018-12-11T09:04:02.660Z,14.78
2018-12-11T09:06:30.857Z,16.20
2018-12-11T09:08:59.050Z,14.10
2018-12-11T09:11:27.301Z,16.35
2018-12-11T09:13:55.549Z,19.62
2018-12-11T09:16:23.781Z,17.00
2018-12-11T09:18:52.051Z,17.40
2018-12-11T09:21:20.290Z,22.62
2018-12-11T09:23:48.566Z,19.95
2018-12-11T09:26:16.819Z,25.85
2018-12-11T09:28:44.933Z,20.05
2018-12-11T09:31:13.059Z,23.90
2018-12-11T09:33:41.432Z,21.77
2018-12-11T09:36:09.646Z,22.62
2018-12-11T09:38:37.891Z,20.02
2018-12-11T09:41:06.122Z,27.62
2018-12-11T09:43:34.427Z,17.27
2018-12-11T09:46:02.738Z,25.37
2018-12-11T09:48:30.979Z,22.67
2018-12-11T09:50:59.216Z,21.48
2018-12-11T09:53:27.415Z,18.50
2018-12-11T09:55:55.649Z,23.38
2018-12-11T09:58:24.129Z,21.80
2018-12-11T10:00:52.301Z,22.00
2018-12-11T10:03:20.582Z,23.05
2018-12-11T10:05:48.919Z,30.43
2018-12-11T10:08:17.134Z,21.62
2018-12-11T10:10:45.349Z,22.45
2018-12-11T10:13:13.693Z,17.02
2018-12-11T10:15:41.993Z,20.43
2018-12-11T10:18:10.266Z,21.90
2018-12-11T10:20:38.520Z,20.72
2018-12-11T10:23:07.138Z,24.80
2018-12-11T10:25:35.427Z,19.77
2018-12-11T10:28:03.679Z,25.48
2018-12-11T10:30:37.320Z,19.60
2018-12-11T10:33:05.595Z,21.40
2018-12-11T10:35:33.798Z,17.55
2018-12-11T10:38:02.161Z,17.52
2018-12-11T10:40:30.419Z,19.60
2018-12-11T10:42:58.619Z,19.07
2018-12-11T10:45:26.834Z,12.20
2018-12-11T10:47:55.077Z,20.88
2018-12-11T10:50:23.325Z,18.62
2018-12-11T10:52:51.567Z,17.48
2018-12-11T10:55:19.701Z,19.90
2018-12-11T10:57:48.062Z,20.20
2018-12-11T11:00:21.801Z,13.75
2018-12-11T11:02:55.566Z,18.77
2018-12-11T11:05:23.794Z,21.52
2018-12-11T11:07:51.955Z,25.52
2018-12-11T11:10:20.316Z,21.62
2018-12-11T11:12:48.525Z,18.80
2018-12-11T11:15:16.813Z,17.45
2018-12-11T11:17:45.093Z,17.25
2018-12-11T11:20:13.364Z,20.88
2018-12-11T11:22:41.638Z,19.95
2018-12-11T11:25:09.869Z,18.30
2018-12-11T11:27:38.087Z,17.40
2018-12-11T11:30:07.814Z,21.70
2018-12-11T11:32:36.110Z,16.40
2018-12-11T11:35:05.147Z,20.08
2018-12-11T11:37:33.484Z,15.93
2018-12-11T11:40:01.710Z,19.42
2018-12-11T11:42:30.103Z,20.32
2018-12-11T11:44:58.531Z,21.95
2018-12-11T11:47:26.748Z,18.12
2018-12-11T11:49:55.047Z,19.20
2018-12-11T11:52:23.448Z,22.30
2018-12-11T11:54:51.742Z,18.85
2018-12-11T11:57:19.943Z,20.45
2018-12-11T11:59:48.208Z,19.10
2018-12-11T12:02:16.421Z,23.52
2018-12-11T12:04:44.670Z,18.10
2018-12-11T12:07:12.924Z,15.78
2018-12-11T12:09:41.159Z,21.15
2018-12-11T12:12:09.495Z,17.30
2018-12-11T12:14:37.726Z,23.83
2018-12-11T12:17:05.997Z,20.95
2018-12-11T12:19:34.251Z,27.00
2018-12-11T12:22:02.526Z,18.85
2018-12-11T12:24:30.729Z,16.48
2018-12-11T12:26:58.985Z,25.05
2018-12-11T12:29:27.287Z,22.87
2018-12-11T12:31:55.506Z,19.10
2018-12-11T12:34:23.616Z,19.05
2018-12-11T12:36:51.895Z,26.97
2018-12-11T12:39:20.143Z,18.67
2018-12-11T12:41:48.350Z,20.88
2018-12-11T12:44:16.531Z,22.20
2018-12-11T12:46:44.816Z,19.92
2018-12-11T12:49:13.067Z,20.25
2018-12-11T12:51:41.430Z,21.52
2018-12-11T12:54:09.627Z,20.50
2018-12-11T12:56:37.863Z,19.15
2018-12-11T12:59:06.085Z,23.45
2018-12-11T13:01:34.363Z,21.45
2018-12-11T13:04:02.578Z,20.57
2018-12-11T13:06:30.970Z,25.60
2018-12-11T13:08:59.349Z,26.97
2018-12-11T13:11:27.611Z,16.73
2018-12-11T13:13:55.815Z,22.07
2018-12-11T13:16:24.006Z,20.30
2018-12-11T13:18:52.291Z,15.43
2018-12-11T13:21:20.530Z,24.52
2018-12-11T13:23:48.747Z,17.40
2018-12-11T13:26:17.004Z,26.33
2018-12-11T13:28:45.211Z,19.62
2018-12-11T13:31:13.435Z,22.20
2018-12-11T13:33:41.633Z,14.30
2018-12-11T13:36:09.918Z,19.37
2018-12-11T13:38:38.175Z,17.02
2018-12-11T13:41:06.518Z,16.87
2018-12-11T13:43:34.942Z,16.32
2018-12-11T13:46:03.275Z,19.95
2018-12-11T13:48:31.614Z,18.32
2018-12-11T13:50:59.909Z,19.48
2018-12-11T13:53:28.146Z,14.83
2018-12-11T13:55:56.390Z,19.73
2018-12-11T13:58:24.761Z,18.80
2018-12-11T14:00:53.096Z,19.50
2018-12-11T14:03:21.350Z,15.53
2018-12-11T14:05:49.589Z,19.12
2018-12-11T14:08:17.831Z,20.52
2018-12-11T14:10:46.078Z,14.95
2018-12-11T14:13:14.350Z,17.05
2018-12-11T14:15:42.674Z,11.28
2018-12-11T14:18:10.852Z,24.52
2018-12-11T14:20:39.072Z,17.35
2018-12-11T14:23:07.331Z,15.30
2018-12-11T14:25:35.555Z,17.12
2018-12-11T14:28:03.774Z,20.40
2018-12-11T14:30:32.036Z,18.07
2018-12-11T14:33:00.260Z,17.02
2018-12-11T14:35:28.495Z,19.07
2018-12-11T14:37:56.727Z,16.35
2018-12-11T14:40:24.976Z,13.08
2018-12-11T14:42:53.218Z,15.20
2018-12-11T14:45:21.420Z,9.95
2018-12-11T14:47:49.674Z,14.73
2018-12-11T14:50:17.898Z,14.47
2018-12-11T14:52:46.110Z,17.50
2018-12-11T14:55:14.374Z,21.55
2018-12-11T14:57:42.611Z,18.37
2018-12-11T15:00:11.130Z,14.98
2018-12-11T15:02:39.841Z,15.38
2018-12-11T15:05:08.780Z,18.07
2018-12-11T15:07:37.075Z,17.60
2018-12-11T15:10:07.706Z,20.00
2018-12-11T15:12:36.007Z,19.80
2018-12-11T15:15:04.804Z,15.25
2018-12-11T15:17:33.050Z,22.55
2018-12-11T15:20:01.296Z,20.30
2018-12-11T15:22:29.483Z,14.15
2018-12-11T15:24:57.681Z,13.50
2018-12-11T15:27:25.914Z,17.07
2018-12-11T15:29:54.138Z,17.05
2018-12-11T15:32:22.408Z,14.90
2018-12-11T15:34:50.854Z,19.15
2018-12-11T15:37:19.083Z,11.75
2018-12-11T15:39:47.474Z,15.68
2018-12-11T15:42:15.687Z,13.60
2018-12-11T15:44:44.094Z,18.02
2018-12-11T15:47:12.329Z,14.70
2018-12-11T15:49:40.710Z,16.85
2018-12-11T15:52:09.022Z,15.50
2018-12-11T15:54:37.389Z,15.08
2018-12-11T15:57:05.709Z,15.95
2018-12-11T15:59:33.986Z,13.62
2018-12-11T16:02:02.180Z,16.75
2018-12-11T16:04:30.534Z,12.58
2018-12-11T16:06:58.728Z,11.90
2018-12-11T16:09:33.124Z,16.67
2018-12-11T16:12:01.489Z,14.53
2018-12-11T16:14:29.769Z,14.53
2018-12-11T16:17:01.661Z,13.05
2018-12-11T16:19:30.036Z,15.65
2018-12-11T16:21:58.277Z,12.68
2018-12-11T16:24:27.343Z,12.65
2018-12-11T16:26:55.683Z,12.95
2018-12-11T16:29:23.951Z,12.43
2018-12-11T16:31:52.127Z,20.32
2018-12-11T16:34:21.155Z,16.57
2018-12-11T16:36:49.534Z,16.70
2018-12-11T16:39:17.761Z,10.35
2018-12-11T16:41:46.012Z,10.93
2018-12-11T16:44:14.367Z,11.78
2018-12-11T16:46:42.760Z,16.55
2018-12-11T16:49:12.567Z,12.23
2018-12-11T16:51:40.902Z,12.15
2018-12-11T16:56:49.818Z,14.05
2018-12-11T16:59:18.114Z,17.27
2018-12-11T17:01:46.397Z,14.20
2018-12-11T17:04:14.725Z,13.15
2018-12-11T17:06:42.992Z,12.73
2018-12-11T17:09:14.481Z,13.58
2018-12-11T17:11:42.799Z,16.37
2018-12-11T17:14:11.026Z,12.50
2018-12-11T17:16:39.336Z,17.87
2018-12-11T17:19:07.558Z,16.17
2018-12-11T17:21:35.857Z,14.38
2018-12-11T17:24:04.271Z,17.52
2018-12-11T17:26:32.512Z,15.98
2018-12-11T17:29:00.646Z,18.32
2018-12-11T17:31:28.867Z,18.37
2018-12-11T17:33:57.553Z,18.45
2018-12-11T17:36:26.262Z,18.12
2018-12-11T17:38:54.491Z,23.07
2018-12-11T17:41:22.924Z,15.95
2018-12-11T17:43:51.161Z,16.97
2018-12-11T17:46:19.444Z,22.07
2018-12-11T17:48:47.747Z,16.95
2018-12-11T17:51:19.285Z,25.05
2018-12-11T17:53:47.834Z,23.15
2018-12-11T17:56:16.190Z,15.50
2018-12-11T17:58:44.410Z,21.40
2018-12-11T18:01:12.733Z,22.98
2018-12-11T18:03:40.954Z,22.98
2018-12-11T18:06:09.235Z,22.65
2018-12-11T18:08:39.264Z,19.67
2018-12-11T18:11:11.209Z,20.00
2018-12-11T18:13:39.736Z,21.55
2018-12-11T18:16:11.871Z,21.85
2018-12-11T18:18:51.998Z,22.05
2018-12-11T18:21:24.825Z,24.98
2018-12-11T18:23:59.414Z,28.15
2018-12-11T18:26:28.327Z,23.50
2018-12-11T18:28:58.803Z,24.45
2018-12-11T18:31:27.431Z,22.87
2018-12-11T18:33:57.035Z,23.98
2018-12-11T18:36:25.735Z,20.85
2018-12-11T18:38:54.646Z,18.67
2018-12-11T18:41:26.245Z,20.75
2018-12-11T18:43:55.039Z,26.15
2018-12-11T18:46:23.386Z,23.45
2018-12-11T18:48:53.975Z,24.90
2018-12-11T18:51:22.930Z,22.77
2018-12-11T18:53:51.290Z,19.32
2018-12-11T18:56:19.788Z,24.18
2018-12-11T18:58:49.229Z,18.87
2018-12-11T19:01:17.592Z,21.48
2018-12-11T19:03:49.220Z,25.90
2018-12-11T19:06:16.721Z,27.32
2018-12-11T19:08:46.996Z,21.30
2018-12-11T19:11:15.290Z,25.43
2018-12-11T19:13:43.653Z,20.70
2018-12-11T19:16:13.114Z,23.15
2018-12-11T19:18:42.351Z,21.87
2018-12-11T19:21:10.585Z,24.05
2018-12-11T19:24:46.459Z,27.32
2018-12-11T19:27:14.701Z,24.50
2018-12-11T19:29:42.985Z,25.08
2018-12-11T19:32:11.275Z,20.50
2018-12-11T19:34:39.458Z,28.20
2018-12-11T19:37:07.727Z,21.48
2018-12-11T19:39:35.986Z,26.68
2018-12-11T19:42:04.241Z,29.45
2018-12-11T19:44:32.523Z,24.67
2018-12-11T19:47:00.888Z,24.90
2018-12-11T19:49:29.112Z,25.35
2018-12-11T19:51:57.734Z,22.32
2018-12-11T19:54:25.954Z,23.65
2018-12-11T19:56:54.308Z,24.65
2018-12-11T19:59:22.529Z,22.30
2018-12-11T20:01:50.853Z,23.25
2018-12-11T20:04:19.278Z,19.65
2018-12-11T20:06:47.628Z,24.50
2018-12-11T20:09:15.968Z,20.05
2018-12-11T20:11:44.191Z,21.87
2018-12-11T20:14:12.430Z,20.65
2018-12-11T20:16:40.704Z,20.50
2018-12-11T20:19:09.193Z,18.77
2018-12-11T20:21:37.671Z,18.32
2018-12-11T20:24:05.984Z,18.98
2018-12-11T20:26:39.408Z,19.77
2018-12-11T20:29:04.547Z,23.27
2018-12-11T20:31:32.787Z,18.15
2018-12-11T20:34:01.767Z,17.73
2018-12-11T20:36:29.977Z,22.87
2018-12-11T20:38:58.315Z,22.35
2018-12-11T20:41:26.502Z,21.95
2018-12-11T20:43:54.737Z,19.90
2018-12-11T20:46:23.031Z,19.45
2018-12-11T20:48:51.382Z,20.37
2018-12-11T20:51:19.606Z,19.55
2018-12-11T20:53:47.807Z,20.82
2018-12-11T20:56:16.040Z,23.42
2018-12-11T20:58:44.241Z,21.33
2018-12-11T21:01:12.563Z,20.95
2018-12-11T21:03:40.839Z,22.48
2018-12-11T21:06:09.027Z,23.05
2018-12-11T21:08:37.314Z,23.83
2018-12-11T21:11:05.559Z,20.80
2018-12-11T21:13:33.769Z,26.42
2018-12-11T21:16:02.318Z,20.75
2018-12-11T21:18:30.557Z,19.65
2018-12-11T21:20:58.974Z,19.40
2018-12-11T21:23:27.502Z,21.00
2018-12-11T21:25:57.097Z,23.67
2018-12-11T21:28:25.668Z,20.72
2018-12-11T21:30:53.955Z,24.15
2018-12-11T21:33:22.231Z,23.77
2018-12-11T21:35:50.500Z,20.02
2018-12-11T21:38:19.886Z,23.85
2018-12-11T21:40:48.177Z,23.92
2018-12-11T21:43:16.430Z,25.45
2018-12-11T21:45:45.085Z,22.00
2018-12-11T21:48:13.415Z,22.07
2018-12-11T21:50:41.819Z,20.95
2018-12-11T21:53:10.084Z,20.80
2018-12-11T21:55:38.290Z,18.87
2018-12-11T21:58:06.764Z,16.55
2018-12-11T22:00:34.989Z,17.10
2018-12-11T22:03:03.445Z,12.85
2018-12-11T22:05:31.711Z,13.65
2018-12-11T22:07:59.905Z,14.58
2018-12-11T22:10:28.323Z,11.15
2018-12-11T22:12:56.707Z,14.70
2018-12-11T22:15:24.915Z,12.82
2018-12-11T22:17:53.042Z,13.48
2018-12-11T22:20:21.326Z,11.48
2018-12-11T22:22:49.920Z,12.60
2018-12-11T22:25:18.319Z,11.85
2018-12-11T22:27:46.487Z,16.65
2018-12-11T22:30:14.899Z,14.18
2018-12-11T22:32:43.377Z,13.00
2018-12-11T22:35:11.677Z,16.90
2018-12-11T22:37:39.811Z,16.02
2018-12-11T22:40:08.028Z,15.25
2018-12-11T22:42:36.229Z,19.30
2018-12-11T22:45:04.789Z,15.10
2018-12-11T22:47:32.983Z,14.85
2018-12-11T22:50:01.286Z,14.98
2018-12-11T22:52:29.966Z,10.45
2018-12-11T22:54:58.498Z,12.53
2018-12-11T22:57:26.796Z,11.95
2018-12-11T22:59:54.961Z,10.20
2018-12-11T23:02:24.580Z,10.40
2018-12-11T23:04:52.797Z,9.65
2018-12-11T23:07:21.048Z,12.03
2018-12-11T23:09:49.307Z,11.50
2018-12-11T23:12:17.558Z,10.15
2018-12-11T23:14:45.777Z,12.58
2018-12-11T23:17:13.978Z,10.18
2018-12-11T23:19:42.259Z,12.65
2018-12-11T23:22:10.544Z,10.85
2018-12-11T23:24:38.982Z,10.55
2018-12-11T23:27:07.274Z,12.25
2018-12-11T23:29:35.519Z,10.15
2018-12-11T23:32:03.738Z,13.30
2018-12-11T23:34:31.902Z,10.55
2018-12-11T23:37:00.183Z,10.60
2018-12-11T23:39:28.330Z,12.10
2018-12-11T23:41:56.538Z,11.88
2018-12-11T23:44:24.690Z,13.10
2018-12-11T23:46:52.854Z,15.58
2018-12-11T23:49:21.054Z,17.35
2018-12-11T23:51:49.306Z,14.07
2018-12-11T23:54:17.538Z,13.30
2018-12-11T23:56:45.682Z,15.10
2018-12-11T23:59:13.925Z,14.78
